Figaró Montmany (Vallès Oriental)





Hora UTC 17:05
Temperatura 14.3 ºC
Humitat 71.0 %
Pressió 1013.2 hPa
Pluja 0.0 mm
Velocitat vent 17.7 km/h
Direcció vent

Dades diàries 2024-04-16



Hora UTC (hivern +1h; estiu +2h)
Temperatura (ºC) Humitat (%) Pressió (hPa) Velocitat vent (km/h) Precipitació (mm)
Hora UTC Aire Humitat Pressió Vel. Dir. Vel. Max Dir. Intent. màx 5 min.
00:05 11.2 75.0 1018.2 5.2 5.2 0.0
00:15 11.2 75.0 1018.2 5.2 8.0 0.0
00:25 11.0 76.0 1017.9 6.1 9.7 0.0
00:35 10.9 77.0 1017.8 11.3 12.9 0.0
00:45 10.9 77.0 1017.8 11.3 12.9 0.0
00:55 11.1 76.0 1017.7 8.0 12.9 0.0
01:05 11.1 76.0 1017.5 12.9 14.5 0.0
01:15 11.1 76.0 1017.5 12.9 14.5 0.0
01:25 11.1 77.0 1017.4 11.3 14.5 0.0
01:35 11.1 77.0 1017.2 12.9 14.5 0.0
01:45 11.1 77.0 1017.2 12.9 14.5 0.0
01:55 10.9 78.0 1017.0 8.9 14.5 0.0
02:05 10.5 80.0 1016.9 9.4 14.5 0.0
02:15 10.5 80.0 1016.9 9.4 14.5 0.0
02:25 10.4 81.0 1016.8 10.8 16.1 0.0
02:35 10.2 81.0 1016.7 12.9 16.1 0.0
02:45 10.2 81.0 1016.7 12.9 16.1 0.0
02:55 9.8 82.0 1016.6 12.9 16.1 0.0
03:05 9.6 83.0 1016.7 10.3 16.1 0.0
03:15 9.6 83.0 1016.7 10.3 16.1 0.0
03:25 9.4 83.0 1016.5 11.4 16.1 0.0
03:45 9.4 83.0 1016.5 11.4 16.1 0.0
03:55 9.2 82.0 1016.4 17.7 17.7 0.0
04:05 9.5 80.0 1016.3 12.9 17.7 0.0
04:15 9.5 80.0 1016.3 12.9 17.7 0.0
04:25 9.7 80.0 1015.8 10.9 17.7 0.0
04:35 9.8 78.0 1015.7 12.7 19.3 0.0
04:45 9.8 78.0 1015.7 12.7 19.3 0.0
04:55 10.0 78.0 1015.7 13.8 20.9 0.0
05:05 10.7 74.0 1015.7 11.3 20.9 0.0
05:15 10.7 74.0 1015.7 11.3 20.9 0.0
05:25 10.9 72.0 1015.8 14.1 20.9 0.0
05:35 11.2 70.0 1016.1 19.3 22.5 0.0
05:45 11.2 70.0 1016.1 19.3 22.5 0.0
05:55 11.5 68.0 1015.8 14.4 22.5 0.0
06:05 11.6 68.0 1015.8 8.0 22.5 0.0
06:15 11.6 68.0 1015.8 8.0 22.5 0.0
06:25 11.8 68.0 1015.8 9.7 22.5 0.0
06:35 11.9 67.0 1016.1 8.4 22.5 0.0
06:45 11.9 67.0 1016.1 8.4 22.5 0.0
06:55 12.2 66.0 1015.9 14.5 22.5 0.0
07:05 12.4 65.0 1015.7 16.1 22.5 0.0
07:15 12.4 65.0 1015.7 16.1 22.5 0.0
07:25 12.4 65.0 1015.6 14.7 22.5 0.0
07:35 12.7 64.0 1015.6 10.9 22.5 0.0
07:45 12.7 64.0 1015.6 10.9 22.5 0.0
07:55 13.0 63.0 1015.6 10.1 22.5 0.0
08:05 13.3 62.0 1015.6 14.5 22.5 0.0
08:15 13.3 62.0 1015.6 14.5 22.5 0.0
08:25 13.6 62.0 1015.5 8.3 22.5 0.0
08:35 14.1 60.0 1015.5 11.3 22.5 0.0
08:45 14.1 60.0 1015.5 11.3 22.5 0.0
08:55 14.6 60.0 1015.4 5.5 22.5 0.0
09:05 15.1 60.0 1015.3 3.2 22.5 0.0
09:15 15.1 60.0 1015.3 3.2 22.5 0.0
09:25 15.8 58.0 1015.4 8.0 22.5 0.0
09:35 15.8 59.0 1015.2 8.0 22.5 0.0
09:55 16.6 58.0 1015.2 6.2 22.5 0.0
10:05 16.6 56.0 1015.0 7.3 22.5 0.0
10:15 16.6 56.0 1015.0 7.3 22.5 0.0
10:25 16.8 54.0 1015.0 11.7 24.1 0.0
10:35 16.8 54.0 1015.0 12.9 24.1 0.0
10:45 16.8 54.0 1015.0 12.9 24.1 0.0
10:55 17.2 54.0 1014.8 7.2 24.1 0.0
11:05 17.6 52.0 1014.7 9.4 24.1 0.0
11:15 17.6 52.0 1014.5 8.4 24.1 0.0
11:25 17.8 51.0 1014.4 7.1 24.1 0.0
11:35 17.9 52.0 1014.2 8.3 24.1 0.0
11:45 17.9 52.0 1014.2 8.3 24.1 0.0
11:55 18.4 50.0 1014.0 9.7 24.1 0.0
12:05 18.4 49.0 1013.5 7.6 24.1 0.0
12:15 18.4 49.0 1013.5 7.6 24.1 0.0
12:25 18.4 52.0 1013.6 16.1 25.7 0.0
12:35 17.6 56.0 1013.6 15.9 30.6 0.0
12:45 17.6 56.0 1013.6 15.9 30.6 0.0
12:55 17.8 57.0 1013.8 14.3 30.6 0.0
13:05 17.9 55.0 1013.6 16.1 30.6 0.0
13:15 17.9 55.0 1013.6 16.1 30.6 0.0
13:25 17.6 58.0 1013.5 16.7 30.6 0.0
13:35 17.7 59.0 1013.5 20.9 30.6 0.0
13:45 17.7 59.0 1013.5 20.9 30.6 0.0
13:55 17.4 61.0 1013.3 15.5 30.6 0.0
14:05 17.2 61.0 1013.3 20.9 35.4 0.0
14:15 17.2 61.0 1013.3 20.9 35.4 0.0
14:25 17.0 60.0 1013.1 17.7 37.0 0.0
14:35 17.4 58.0 1013.2 15.0 37.0 0.0
14:45 17.4 58.0 1013.2 15.0 37.0 0.0
14:55 17.4 55.0 1013.0 24.1 37.0 0.0
15:05 17.1 56.0 1012.7 24.1 37.0 0.0
15:15 17.1 56.0 1012.7 24.1 37.0 0.0
15:25 17.3 54.0 1012.8 15.8 37.0 0.0
15:35 16.8 55.0 1012.8 19.3 37.0 0.0
15:45 16.8 55.0 1012.8 19.3 37.0 0.0
15:55 16.3 54.0 1013.0 20.9 37.0 0.0
16:05 16.3 55.0 1013.0 15.1 37.0 0.0
16:15 16.3 55.0 1013.0 15.1 37.0 0.0
16:25 15.9 57.0 1013.0 17.7 37.0 0.0
16:35 15.4 61.0 1013.0 16.2 37.0 0.0
16:45 15.4 61.0 1013.0 16.2 37.0 0.0
16:55 15.1 65.0 1013.1 17.7 37.0 0.0
17:05 14.3 71.0 1013.2 17.7 37.0 0.0
Màxima 18.4 83.0 1018.2 24.1 37.0 0.0
Mínima 9.2 49.0 1012.7
Total 0.0